Time,TemperatureF,DewpointF,PressureIn,WindDirection,WindDirectionDegrees,WindSpeedMPH,WindSpeedGustMPH,Humidity,HourlyPrecipIn,Conditions,Clouds,dailyrainin,SoftwareType,DateUTC
2013-01-19 00:10:00,5.2,-2.5,30.38,NW,315,0.2,0.4,70,0.00,,,0.00,WUHU216HW,2013-01-19 05:10:00,
2013-01-19 00:25:00,5.6,-2.2,30.38,North,0,0.0,0.0,70,0.00,,,0.00,WUHU216HW,2013-01-19 05:25:00,
2013-01-19 00:40:00,6.1,-1.6,30.37,North,0,0.0,0.0,70,0.00,,,0.00,WUHU216HW,2013-01-19 05:40:00,
2013-01-19 00:55:00,6.3,-1.4,30.37,North,0,0.0,0.0,70,0.00,,,0.00,WUHU216HW,2013-01-19 05:55:00,
2013-01-19 01:10:00,6.8,-0.9,30.38,North,0,0.0,0.0,70,0.00,,,0.00,WUHU216HW,2013-01-19 06:10:00,
2013-01-19 01:25:00,7.2,-0.5,30.37,North,0,0.0,0.0,70,0.00,,,0.00,WUHU216HW,2013-01-19 06:25:00,
2013-01-19 01:40:00,7.4,0.2,30.37,North,0,0.0,0.0,72,0.00,,,0.00,WUHU216HW,2013-01-19 06:40:00,
2013-01-19 01:55:00,7.6,0.7,30.36,South,180,0.3,0.4,73,0.00,,,0.00,WUHU216HW,2013-01-19 06:55:00,
2013-01-19 02:10:00,7.9,1.4,30.35,SSW,206,0.4,0.4,74,0.00,,,0.00,WUHU216HW,2013-01-19 07:10:00,
2013-01-19 02:25:00,8.3,1.7,30.35,North,0,0.0,0.0,74,0.00,,,0.00,WUHU216HW,2013-01-19 07:25:00,
2013-01-19 02:40:00,8.5,1.9,30.34,North,0,0.0,0.0,74,0.00,,,0.00,WUHU216HW,2013-01-19 07:40:00,
2013-01-19 02:55:00,8.8,2.5,30.32,NW,315,0.2,0.2,75,0.00,,,0.00,WUHU216HW,2013-01-19 07:55:00,
2013-01-19 03:10:00,9.0,2.7,30.32,NNW,338,0.3,0.4,75,0.00,,,0.00,WUHU216HW,2013-01-19 08:10:00,
2013-01-19 03:25:00,9.2,2.8,30.31,West,270,0.2,0.2,75,0.00,,,0.00,WUHU216HW,2013-01-19 08:25:00,
2013-01-19 03:40:00,9.4,3.2,30.29,North,0,0.0,0.0,76,0.00,,,0.00,WUHU216HW,2013-01-19 08:40:00,
2013-01-19 03:55:00,9.5,3.4,30.28,North,0,0.0,0.0,76,0.00,,,0.00,WUHU216HW,2013-01-19 08:55:00,
2013-01-19 04:10:00,9.7,3.6,30.27,North,0,0.0,0.0,76,0.00,,,0.00,WUHU216HW,2013-01-19 09:10:00,
2013-01-19 04:25:00,9.7,3.6,30.26,North,0,0.0,0.0,76,0.00,,,0.00,WUHU216HW,2013-01-19 09:25:00,
2013-01-19 04:40:00,9.9,4.1,30.26,North,0,0.0,0.0,77,0.00,,,0.00,WUHU216HW,2013-01-19 09:40:00,
2013-01-19 04:55:00,10.1,4.2,30.25,North,0,0.0,0.0,77,0.00,,,0.00,WUHU216HW,2013-01-19 09:55:00,
2013-01-19 05:10:00,10.4,4.5,30.24,North,0,0.0,0.0,77,0.00,,,0.00,WUHU216HW,2013-01-19 10:10:00,
2013-01-19 05:25:00,10.6,4.7,30.24,North,0,0.0,0.0,77,0.00,,,0.00,WUHU216HW,2013-01-19 10:25:00,
2013-01-19 05:40:00,10.8,5.2,30.23,North,0,0.0,0.0,78,0.00,,,0.00,WUHU216HW,2013-01-19 10:40:00,
2013-01-19 05:55:00,11.0,5.4,30.22,WNW,293,0.3,0.4,78,0.00,,,0.00,WUHU216HW,2013-01-19 10:55:00,
2013-01-19 06:10:00,11.2,5.9,30.23,WNW,293,0.4,0.4,79,0.00,,,0.00,WUHU216HW,2013-01-19 11:10:00,
2013-01-19 06:25:00,11.3,6.0,30.23,WNW,293,0.3,0.4,79,0.00,,,0.00,WUHU216HW,2013-01-19 11:25:00,
2013-01-19 06:42:00,11.5,6.2,30.22,North,0,0.0,0.0,79,0.00,,,0.00,WUHU216HW,2013-01-19 11:42:00,
2013-01-19 06:58:00,11.7,6.4,30.21,WNW,293,0.6,0.9,79,0.00,,,0.00,WUHU216HW,2013-01-19 11:58:00,
2013-01-19 07:15:00,11.9,6.8,30.21,WNW,293,0.4,0.9,80,0.00,,,0.00,WUHU216HW,2013-01-19 12:15:00,
2013-01-19 07:31:00,12.1,7.0,30.21,WNW,293,0.4,0.4,80,0.00,,,0.00,WUHU216HW,2013-01-19 12:31:00,
2013-01-19 07:48:00,12.4,7.7,30.20,WNW,293,0.2,0.2,81,0.00,,,0.00,WUHU216HW,2013-01-19 12:48:00,
2013-01-19 08:03:00,12.6,7.8,30.19,WNW,293,0.2,0.2,81,0.00,,,0.00,WUHU216HW,2013-01-19 13:03:00,
2013-01-19 08:18:00,13.1,8.4,30.19,North,0,0.0,0.0,81,0.00,,,0.00,WUHU216HW,2013-01-19 13:18:00,
2013-01-19 08:33:00,13.5,8.7,30.19,WNW,293,0.4,0.7,81,0.00,,,0.00,WUHU216HW,2013-01-19 13:33:00,
2013-01-19 08:48:00,14.2,9.7,30.19,WNW,293,0.3,0.4,82,0.00,,,0.00,WUHU216HW,2013-01-19 13:48:00,
2013-01-19 09:03:00,15.1,10.6,30.19,North,0,0.0,0.0,82,0.00,,,0.00,WUHU216HW,2013-01-19 14:03:00,
2013-01-19 09:18:00,16.2,11.6,30.18,North,0,0.0,0.0,82,0.00,,,0.00,WUHU216HW,2013-01-19 14:18:00,
2013-01-19 09:33:00,17.5,13.1,30.18,North,0,0.0,0.0,83,0.01,,,0.01,WUHU216HW,2013-01-19 14:33:00,
2013-01-19 09:48:00,19.1,14.7,30.17,WNW,293,0.5,0.7,83,0.01,,,0.01,WUHU216HW,2013-01-19 14:48:00,
2013-01-19 10:03:00,20.9,16.5,30.17,WNW,293,0.4,1.1,83,0.01,,,0.01,WUHU216HW,2013-01-19 15:03:00,
2013-01-19 10:18:00,21.8,17.1,30.16,WNW,293,0.9,1.6,82,0.01,,,0.01,WUHU216HW,2013-01-19 15:18:00,
2013-01-19 10:33:00,22.7,18.0,30.15,WNW,293,0.4,0.9,82,0.00,,,0.01,WUHU216HW,2013-01-19 15:33:00,
2013-01-19 10:48:00,24.5,19.3,30.14,WNW,293,0.6,1.8,80,0.00,,,0.01,WUHU216HW,2013-01-19 15:48:00,
2013-01-19 11:03:00,24.8,19.9,30.12,West,270,1.4,2.7,81,0.00,,,0.01,WUHU216HW,2013-01-19 16:03:00,
2013-01-19 11:18:00,26.6,21.0,30.12,West,276,1.4,4.7,79,0.00,,,0.01,WUHU216HW,2013-01-19 16:18:00,
2013-01-19 11:33:00,27.7,21.4,30.10,West,259,1.4,4.7,77,0.00,,,0.01,WUHU216HW,2013-01-19 16:33:00,
2013-01-19 11:48:00,28.8,22.1,30.09,West,275,1.4,3.8,76,0.00,,,0.01,WUHU216HW,2013-01-19 16:48:00,
2013-01-19 12:03:00,29.2,22.2,30.08,WSW,256,1.7,5.4,75,0.00,,,0.01,WUHU216HW,2013-01-19 17:03:00,
2013-01-19 12:18:00,29.9,22.9,30.06,WNW,291,1.2,3.4,75,0.00,,,0.01,WUHU216HW,2013-01-19 17:18:00,
2013-01-19 12:33:00,30.2,22.6,30.06,West,279,1.6,4.5,73,0.00,,,0.01,WUHU216HW,2013-01-19 17:33:00,
2013-01-19 12:48:00,31.3,23.3,30.06,SW,236,1.5,3.1,72,0.00,,,0.01,WUHU216HW,2013-01-19 17:48:00,
2013-01-19 13:03:00,31.9,23.2,30.06,SW,225,1.6,4.7,70,0.00,,,0.01,WUHU216HW,2013-01-19 18:03:00,
2013-01-19 13:18:00,32.0,23.4,30.05,SW,218,1.5,3.8,70,0.00,,,0.01,WUHU216HW,2013-01-19 18:18:00,
2013-01-19 13:33:00,31.9,23.2,30.05,WNW,294,1.3,3.4,70,0.00,,,0.01,WUHU216HW,2013-01-19 18:33:00,
2013-01-19 13:48:00,32.0,24.0,30.04,WNW,301,0.7,1.8,72,0.00,,,0.01,WUHU216HW,2013-01-19 18:48:00,
2013-01-19 14:04:00,32.4,25.0,30.05,NW,318,0.6,1.3,74,0.00,,,0.01,WUHU216HW,2013-01-19 19:04:00,
2013-01-19 14:19:00,32.8,25.4,30.05,East,98,0.6,0.7,74,0.00,,,0.01,WUHU216HW,2013-01-19 19:19:00,
2013-01-19 14:34:00,32.9,25.5,30.04,North,0,0.0,0.0,74,0.00,,,0.01,WUHU216HW,2013-01-19 19:34:00,
2013-01-19 14:49:00,32.9,26.2,30.04,WNW,294,1.0,1.6,76,0.00,,,0.01,WUHU216HW,2013-01-19 19:49:00,
2013-01-19 15:04:00,33.1,26.6,30.04,NNE,17,0.4,0.7,77,0.00,,,0.01,WUHU216HW,2013-01-19 20:04:00,
2013-01-19 15:19:00,32.9,26.8,30.03,NW,323,0.7,1.3,78,0.00,,,0.01,WUHU216HW,2013-01-19 20:19:00,
2013-01-19 15:34:00,32.6,26.8,30.03,NW,305,1.1,2.5,79,0.00,,,0.01,WUHU216HW,2013-01-19 20:34:00,
2013-01-19 15:50:00,32.2,26.8,30.03,NW,315,0.4,0.9,80,0.00,,,0.01,WUHU216HW,2013-01-19 20:50:00,
2013-01-19 16:05:00,32.0,26.3,30.03,NW,304,0.8,2.5,79,0.00,,,0.01,WUHU216HW,2013-01-19 21:05:00,
2013-01-19 16:20:00,31.7,26.3,30.03,NW,307,1.2,2.5,80,0.00,,,0.01,WUHU216HW,2013-01-19 21:20:00,
2013-01-19 16:35:00,31.5,26.1,30.03,NW,308,0.6,1.6,80,0.00,,,0.01,WUHU216HW,2013-01-19 21:35:00,
2013-01-19 16:50:00,31.3,26.2,30.03,WNW,290,0.8,1.8,81,0.00,,,0.01,WUHU216HW,2013-01-19 21:50:00,
2013-01-19 17:05:00,31.0,25.8,30.03,NW,319,0.4,0.9,81,0.00,,,0.01,WUHU216HW,2013-01-19 22:05:00,
2013-01-19 17:20:00,31.0,26.5,30.04,WNW,300,0.9,2.0,83,0.00,,,0.01,WUHU216HW,2013-01-19 22:20:00,
2013-01-19 17:35:00,30.8,26.3,30.04,WNW,288,0.5,1.1,83,0.00,,,0.01,WUHU216HW,2013-01-19 22:35:00,
2013-01-19 17:50:00,30.6,26.1,30.04,WNW,295,0.7,1.1,83,0.00,,,0.01,WUHU216HW,2013-01-19 22:50:00,
2013-01-19 18:05:00,30.4,26.2,30.03,NW,314,0.5,1.1,84,0.00,,,0.01,WUHU216HW,2013-01-19 23:05:00,
2013-01-19 18:20:00,30.2,25.8,30.03,WNW,302,0.6,1.1,83,0.00,,,0.01,WUHU216HW,2013-01-19 23:20:00,
2013-01-19 18:35:00,29.9,25.7,30.04,NW,315,0.5,0.9,84,0.00,,,0.01,WUHU216HW,2013-01-19 23:35:00,
2013-01-19 18:50:00,29.7,25.7,30.04,NNW,328,0.9,1.8,85,0.00,,,0.01,WUHU216HW,2013-01-19 23:50:00,
2013-01-19 19:06:00,29.3,25.4,30.04,NW,304,0.4,1.3,85,0.00,,,0.01,WUHU216HW,2013-01-20 00:06:00,
2013-01-19 19:21:00,29.2,25.2,30.04,WNW,297,0.8,1.8,85,0.00,,,0.01,WUHU216HW,2013-01-20 00:21:00,
2013-01-19 19:36:00,29.2,25.2,30.04,NW,311,0.8,1.3,85,0.00,,,0.01,WUHU216HW,2013-01-20 00:36:00,
2013-01-19 19:51:00,29.0,25.0,30.04,NNW,338,0.7,1.1,85,0.00,,,0.01,WUHU216HW,2013-01-20 00:51:00,
2013-01-19 20:06:00,28.8,24.8,30.04,NW,315,0.8,1.1,85,0.00,,,0.01,WUHU216HW,2013-01-20 01:06:00,
2013-01-19 20:22:00,28.6,24.9,30.04,North,0,0.0,0.0,86,0.00,,,0.01,WUHU216HW,2013-01-20 01:22:00,
2013-01-19 20:37:00,28.4,24.8,30.04,NW,315,0.7,1.1,86,0.00,,,0.01,WUHU216HW,2013-01-20 01:37:00,
2013-01-19 20:52:00,28.3,24.6,30.03,WNW,296,0.3,0.7,86,0.00,,,0.01,WUHU216HW,2013-01-20 01:52:00,
2013-01-19 21:07:00,28.1,24.1,30.03,North,0,0.0,0.0,85,0.00,,,0.01,WUHU216HW,2013-01-20 02:07:00,
2013-01-19 21:22:00,28.1,24.1,30.03,North,0,0.0,0.0,85,0.00,,,0.01,WUHU216HW,2013-01-20 02:22:00,
2013-01-19 21:37:00,28.1,24.1,30.02,North,0,0.0,0.0,85,0.00,,,0.01,WUHU216HW,2013-01-20 02:37:00,
2013-01-19 21:52:00,28.1,24.1,30.01,North,0,0.0,0.0,85,0.00,,,0.01,WUHU216HW,2013-01-20 02:52:00,
2013-01-19 22:07:00,28.1,24.1,30.01,NW,315,0.3,0.4,85,0.00,,,0.01,WUHU216HW,2013-01-20 03:07:00,
2013-01-19 22:22:00,28.1,24.4,30.01,North,0,0.0,0.0,86,0.00,,,0.01,WUHU216HW,2013-01-20 03:22:00,
2013-01-19 22:38:00,28.1,24.4,30.00,North,0,0.0,0.0,86,0.00,,,0.01,WUHU216HW,2013-01-20 03:38:00,
2013-01-19 22:53:00,28.1,24.7,29.98,North,0,0.0,0.0,87,0.00,,,0.01,WUHU216HW,2013-01-20 03:53:00,
2013-01-19 23:08:00,28.1,24.7,29.98,NNW,338,0.2,0.2,87,0.00,,,0.01,WUHU216HW,2013-01-20 04:08:00,
2013-01-19 23:23:00,28.1,24.7,29.97,NNW,338,0.2,0.2,87,0.00,,,0.01,WUHU216HW,2013-01-20 04:23:00,
2013-01-19 23:38:00,28.1,24.7,29.95,NNW,338,0.4,0.7,87,0.00,,,0.01,WUHU216HW,2013-01-20 04:38:00,
2013-01-19 23:53:00,28.3,24.8,29.94,NW,319,0.8,1.1,87,0.00,,,0.01,WUHU216HW,2013-01-20 04:53:00,